SBRF/REC METAR and TAF weather

Enter ICAO airport designator
Station Type Date Time Source
SBRF METAR 2019/02/23 00:00 UTC NOAA

SBRF 230000Z 08004KT 050V120 9999 SCT021 28/24 Q1014


Station Type Date Time Source
SBRF Decoded METAR 2019/02/23 00:00 UTC NOAA

Recife Aeroporto , Brazil (SBRF) 08-04S 034-51W
Feb 22, 2019 - 07:00 PM EST / 2019.02.23 0000 UTC
Wind: from the E (080 degrees) at 5 MPH (4 KT) (direction variable):0
Visibility: greater than 7 mile(s):0
Sky conditions: partly cloudy
Temperature: 82 F (28 C)
Dew Point: 75 F (24 C)
Relative Humidity: 78%
Pressure (altimeter): 29.94 in. Hg (1014 hPa)
ob: SBRF 230000Z 08004KT 050V120 9999 SCT021 28/24 Q1014
cycle: 0

Station Type Date Time Source
SBRF TAF 2019/02/23 00:00 UTC NOAA

TAF SBRF 222100Z 2300/2324 11008KT 9000 SCT022 TN26/2308Z TX30/2315Z
BECMG 2303/2305 25005KT
BECMG 2308/2310 10010KT
RMK PDU


Example: see airport list